createdAt,value
2019-01-16T00:00:56.172Z,0
2019-01-16T00:02:04.227Z,0
2019-01-16T00:03:12.278Z,0
2019-01-16T00:04:20.326Z,0
2019-01-16T00:05:28.425Z,0
2019-01-16T00:06:36.430Z,0
2019-01-16T00:07:44.490Z,0
2019-01-16T00:08:52.535Z,0
2019-01-16T00:10:00.565Z,0
2019-01-16T00:11:08.659Z,0
2019-01-16T00:12:16.699Z,0
2019-01-16T00:13:24.743Z,0
2019-01-16T00:14:32.807Z,0
2019-01-16T00:15:40.822Z,0
2019-01-16T00:16:48.903Z,0
2019-01-16T00:17:56.960Z,0
2019-01-16T00:19:05.007Z,0
2019-01-16T00:20:13.085Z,0
2019-01-16T00:21:21.097Z,0
2019-01-16T00:22:29.153Z,0
2019-01-16T00:23:37.221Z,0
2019-01-16T00:24:45.274Z,0
2019-01-16T00:25:53.309Z,0
2019-01-16T00:27:01.353Z,0
2019-01-16T00:28:09.437Z,0
2019-01-16T00:29:17.482Z,0
2019-01-16T00:30:25.535Z,0
2019-01-16T00:31:33.584Z,0
2019-01-16T00:32:41.628Z,0
2019-01-16T00:33:49.692Z,0
2019-01-16T00:34:57.758Z,0
2019-01-16T00:36:05.822Z,0
2019-01-16T00:37:13.847Z,0
2019-01-16T00:38:21.897Z,0
2019-01-16T00:39:29.966Z,0
2019-01-16T00:40:38.024Z,0
2019-01-16T00:41:46.068Z,0
2019-01-16T00:42:54.116Z,0
2019-01-16T00:44:02.172Z,0
2019-01-16T00:45:10.224Z,0
2019-01-16T00:46:18.284Z,0
2019-01-16T00:47:26.342Z,0
2019-01-16T00:48:34.400Z,0
2019-01-16T00:49:42.455Z,0
2019-01-16T00:50:50.478Z,0
2019-01-16T00:51:58.546Z,0
2019-01-16T00:53:06.591Z,0
2019-01-16T00:54:14.636Z,0
2019-01-16T00:55:22.711Z,0
2019-01-16T00:56:30.727Z,0
2019-01-16T00:57:38.816Z,0
2019-01-16T00:58:46.869Z,0
2019-01-16T00:59:54.913Z,0
2019-01-16T01:01:02.996Z,0
2019-01-16T01:02:10.991Z,0
2019-01-16T01:03:19.065Z,0
2019-01-16T01:04:27.114Z,0
2019-01-16T01:05:35.168Z,0
2019-01-16T01:06:43.219Z,0
2019-01-16T01:07:51.255Z,0
2019-01-16T01:08:59.326Z,0
2019-01-16T01:10:07.395Z,0
2019-01-16T01:11:15.435Z,0
2019-01-16T01:12:23.483Z,0
2019-01-16T01:13:31.540Z,0
2019-01-16T01:14:39.619Z,0
2019-01-16T01:15:47.639Z,0
2019-01-16T01:16:55.700Z,0
2019-01-16T01:18:03.764Z,0
2019-01-16T01:19:11.816Z,0
2019-01-16T01:20:19.863Z,0
2019-01-16T01:21:27.909Z,0
2019-01-16T01:22:35.973Z,0
2019-01-16T01:23:44.029Z,0
2019-01-16T01:24:52.061Z,0
2019-01-16T01:26:00.117Z,0
2019-01-16T01:27:14.044Z,0
2019-01-16T01:28:22.091Z,0
2019-01-16T01:29:30.143Z,0
2019-01-16T01:30:38.200Z,0
2019-01-16T01:31:46.236Z,0
2019-01-16T01:32:54.302Z,0
2019-01-16T01:34:02.327Z,0
2019-01-16T01:35:10.397Z,0
2019-01-16T01:36:18.452Z,0
2019-01-16T01:37:26.514Z,0
2019-01-16T01:38:34.654Z,0
2019-01-16T01:39:42.607Z,0
2019-01-16T01:40:50.623Z,0
2019-01-16T01:44:24.762Z,0
2019-01-16T01:45:32.570Z,0
2019-01-16T01:46:42.229Z,0
2019-01-16T01:49:21.373Z,0
2019-01-16T01:50:29.452Z,0
2019-01-16T01:51:37.503Z,0
2019-01-16T01:52:45.670Z,0
2019-01-16T01:53:55.280Z,0
2019-01-16T01:55:03.258Z,0
2019-01-16T01:56:11.320Z,0
2019-01-16T01:57:19.750Z,0
2019-01-16T01:58:27.408Z,0
2019-01-16T01:59:35.460Z,0
2019-01-16T02:00:43.516Z,0
2019-01-16T02:01:51.568Z,0
2019-01-16T02:02:59.618Z,0
2019-01-16T02:04:07.664Z,0
2019-01-16T02:05:15.724Z,0
2019-01-16T02:06:23.785Z,0
2019-01-16T02:07:31.818Z,0
2019-01-16T02:08:39.862Z,0
2019-01-16T02:09:47.907Z,0
2019-01-16T02:10:55.972Z,0
2019-01-16T02:12:04.016Z,0
2019-01-16T02:13:12.065Z,0
2019-01-16T02:14:20.177Z,0
2019-01-16T02:15:28.165Z,0
2019-01-16T02:16:36.280Z,0
2019-01-16T02:17:44.266Z,0
2019-01-16T02:18:52.310Z,0
2019-01-16T02:20:00.373Z,0
2019-01-16T02:21:08.414Z,0
2019-01-16T02:22:16.484Z,0
2019-01-16T02:23:24.522Z,0
2019-01-16T02:24:32.567Z,0
2019-01-16T02:25:40.604Z,0
2019-01-16T02:26:48.681Z,0
2019-01-16T02:27:58.607Z,0
2019-01-16T02:29:04.762Z,0
2019-01-16T02:30:12.851Z,0
2019-01-16T02:31:20.857Z,0
2019-01-16T02:32:28.916Z,0
2019-01-16T02:33:36.969Z,0
2019-01-16T02:34:45.017Z,0
2019-01-16T02:35:53.085Z,0
2019-01-16T02:37:01.148Z,0
2019-01-16T02:38:09.176Z,0
2019-01-16T02:39:17.223Z,0
2019-01-16T02:40:25.283Z,0
2019-01-16T02:41:33.346Z,0
2019-01-16T02:42:41.343Z,0
2019-01-16T02:43:49.435Z,0
2019-01-16T02:44:57.487Z,0
2019-01-16T02:46:05.570Z,0
2019-01-16T02:47:13.570Z,0
2019-01-16T02:48:21.628Z,0
2019-01-16T02:49:29.679Z,0
2019-01-16T02:50:37.738Z,0
2019-01-16T02:51:45.765Z,0
2019-01-16T02:52:53.870Z,0
2019-01-16T02:54:01.874Z,0
2019-01-16T02:55:09.967Z,0
2019-01-16T02:56:17.970Z,0
2019-01-16T02:57:26.037Z,0
2019-01-16T02:58:34.079Z,0
2019-01-16T02:59:42.134Z,0
2019-01-16T03:00:50.179Z,0
2019-01-16T03:01:58.300Z,0
2019-01-16T03:03:06.279Z,0
2019-01-16T03:04:14.937Z,0
2019-01-16T03:06:35.482Z,0
2019-01-16T03:07:43.531Z,0
2019-01-16T03:08:51.567Z,0
2019-01-16T03:09:59.617Z,0
2019-01-16T03:11:07.679Z,0
2019-01-16T03:12:15.724Z,0
2019-01-16T03:13:23.808Z,0
2019-01-16T03:14:31.817Z,0
2019-01-16T03:15:39.890Z,0
2019-01-16T03:16:47.925Z,0
2019-01-16T03:17:55.964Z,0
2019-01-16T03:19:04.622Z,0
2019-01-16T03:20:12.079Z,0
2019-01-16T03:21:20.125Z,0
2019-01-16T03:22:28.177Z,0
2019-01-16T03:23:36.244Z,0
2019-01-16T03:24:44.273Z,0
2019-01-16T03:25:52.319Z,0
2019-01-16T03:27:00.398Z,0
2019-01-16T03:28:08.418Z,0
2019-01-16T03:29:16.519Z,0
2019-01-16T03:30:24.532Z,0
2019-01-16T03:31:32.616Z,0
2019-01-16T03:32:40.626Z,0
2019-01-16T03:33:48.722Z,0
2019-01-16T03:34:56.728Z,0
2019-01-16T03:36:04.772Z,0
2019-01-16T03:37:12.821Z,0
2019-01-16T03:38:20.909Z,0
2019-01-16T03:39:28.918Z,0
2019-01-16T03:40:37.043Z,0
2019-01-16T03:41:45.031Z,0
2019-01-16T03:42:53.095Z,0
2019-01-16T03:44:01.096Z,0
2019-01-16T03:45:09.178Z,0
2019-01-16T03:46:17.238Z,0
2019-01-16T03:47:25.281Z,0
2019-01-16T03:48:33.353Z,0
2019-01-16T03:49:41.416Z,0
2019-01-16T03:50:49.436Z,0
2019-01-16T03:51:57.522Z,0
2019-01-16T03:53:05.519Z,0
2019-01-16T03:54:13.616Z,0
2019-01-16T03:55:21.629Z,0
2019-01-16T03:56:29.673Z,0
2019-01-16T03:57:37.723Z,0
2019-01-16T03:58:45.817Z,0
2019-01-16T03:59:53.806Z,0
2019-01-16T04:01:01.925Z,0
2019-01-16T04:02:09.919Z,0
2019-01-16T04:03:17.978Z,0
2019-01-16T04:04:26.028Z,0
2019-01-16T04:05:34.080Z,0
2019-01-16T04:06:42.127Z,0
2019-01-16T04:07:50.200Z,0
2019-01-16T04:08:58.240Z,0
2019-01-16T04:10:06.956Z,0
2019-01-16T04:11:14.311Z,0
2019-01-16T04:12:22.369Z,0
2019-01-16T04:13:30.421Z,0
2019-01-16T04:14:38.493Z,0
2019-01-16T04:15:46.524Z,0
2019-01-16T04:16:54.581Z,0
2019-01-16T04:18:02.629Z,0
2019-01-16T04:19:10.645Z,0
2019-01-16T04:20:18.736Z,0
2019-01-16T04:21:26.778Z,0
2019-01-16T04:22:34.822Z,0
2019-01-16T04:23:42.868Z,0
2019-01-16T04:24:50.907Z,0
2019-01-16T04:25:58.969Z,0
2019-01-16T04:27:07.032Z,0
2019-01-16T04:28:15.081Z,0
2019-01-16T04:29:23.111Z,0
2019-01-16T04:30:31.159Z,0
2019-01-16T04:31:39.234Z,0
2019-01-16T04:32:47.278Z,0
2019-01-16T04:33:55.339Z,0
2019-01-16T04:35:03.385Z,0
2019-01-16T04:36:11.425Z,0
2019-01-16T04:37:19.478Z,0
2019-01-16T04:38:27.521Z,0
2019-01-16T04:39:35.565Z,0
2019-01-16T04:40:43.621Z,0
2019-01-16T04:41:51.678Z,0
2019-01-16T04:42:59.716Z,0
2019-01-16T04:44:09.606Z,0
2019-01-16T04:45:15.816Z,0
2019-01-16T04:46:23.882Z,0
2019-01-16T04:47:31.935Z,0
2019-01-16T04:48:39.969Z,0
2019-01-16T04:49:48.026Z,0
2019-01-16T04:50:56.073Z,0
2019-01-16T04:52:04.129Z,0
2019-01-16T04:53:12.177Z,0
2019-01-16T04:54:20.235Z,0
2019-01-16T04:55:28.286Z,0
2019-01-16T04:56:36.330Z,0
2019-01-16T04:57:44.485Z,0
2019-01-16T04:58:52.429Z,0
2019-01-16T05:00:00.453Z,0
2019-01-16T05:01:08.530Z,0
2019-01-16T05:02:16.594Z,0
2019-01-16T05:03:24.631Z,0
2019-01-16T05:04:32.683Z,0
2019-01-16T05:05:40.705Z,0
2019-01-16T05:06:48.773Z,0
2019-01-16T05:07:56.833Z,0
2019-01-16T05:09:04.869Z,0
2019-01-16T05:10:12.934Z,0
2019-01-16T05:11:20.948Z,0
2019-01-16T05:12:29.468Z,0
2019-01-16T05:13:37.065Z,0
2019-01-16T05:14:45.117Z,0
2019-01-16T05:15:53.169Z,0
2019-01-16T05:17:01.206Z,0
2019-01-16T05:18:09.275Z,0
2019-01-16T05:19:17.321Z,0
2019-01-16T05:20:25.390Z,0
2019-01-16T05:21:33.436Z,0
2019-01-16T05:22:41.467Z,0
2019-01-16T05:23:49.530Z,0
2019-01-16T05:24:57.562Z,0
2019-01-16T05:26:05.625Z,0
2019-01-16T05:27:13.685Z,0
2019-01-16T05:28:21.732Z,4
2019-01-16T05:29:29.772Z,4
2019-01-16T05:30:37.843Z,0
2019-01-16T05:31:45.873Z,0
2019-01-16T05:32:53.921Z,0
2019-01-16T05:34:02.713Z,0
2019-01-16T05:35:10.022Z,0
2019-01-16T05:36:18.077Z,0
2019-01-16T05:37:26.133Z,0
2019-01-16T05:38:34.179Z,0
2019-01-16T05:39:42.234Z,0
2019-01-16T05:40:50.284Z,0
2019-01-16T05:41:58.327Z,0
2019-01-16T05:43:06.384Z,0
2019-01-16T05:44:14.419Z,0
2019-01-16T05:45:22.479Z,0
2019-01-16T05:46:30.511Z,0
2019-01-16T05:47:38.599Z,0
2019-01-16T05:48:46.619Z,0
2019-01-16T05:49:54.680Z,0
2019-01-16T05:51:02.734Z,0
2019-01-16T05:52:10.751Z,0
2019-01-16T05:53:18.828Z,0
2019-01-16T05:54:27.511Z,0
2019-01-16T05:55:35.577Z,0
2019-01-16T05:56:43.150Z,0
2019-01-16T05:57:51.043Z,0
2019-01-16T05:58:59.067Z,0
2019-01-16T06:00:07.125Z,0
2019-01-16T06:01:15.178Z,0
2019-01-16T06:02:23.220Z,0
2019-01-16T06:03:31.476Z,0
2019-01-16T06:04:39.323Z,0
2019-01-16T06:05:47.377Z,0
2019-01-16T06:06:55.419Z,0
2019-01-16T06:08:03.784Z,0
2019-01-16T06:09:11.522Z,0
2019-01-16T06:10:19.578Z,0
2019-01-16T06:11:27.629Z,0
2019-01-16T06:12:35.675Z,0
2019-01-16T06:13:43.725Z,0
2019-01-16T06:14:51.827Z,0
2019-01-16T06:15:59.820Z,0
2019-01-16T06:17:07.872Z,0
2019-01-16T06:18:15.917Z,0
2019-01-16T06:19:23.969Z,0
2019-01-16T06:20:32.036Z,0
2019-01-16T06:21:40.077Z,0
2019-01-16T06:22:48.135Z,0
2019-01-16T06:23:56.167Z,0
2019-01-16T06:25:04.237Z,0
2019-01-16T06:26:12.281Z,0
2019-01-16T06:27:20.385Z,0
2019-01-16T06:28:28.373Z,0
2019-01-16T06:29:36.418Z,0
2019-01-16T06:30:44.466Z,0
2019-01-16T06:31:52.524Z,0
2019-01-16T06:33:00.551Z,0
2019-01-16T06:34:08.659Z,0
2019-01-16T06:35:16.680Z,0
2019-01-16T06:36:24.730Z,4
2019-01-16T06:37:32.784Z,4
2019-01-16T06:38:40.816Z,0
2019-01-16T06:39:48.865Z,4
2019-01-16T06:40:56.966Z,4
2019-01-16T06:42:04.982Z,4
2019-01-16T06:43:13.018Z,4
2019-01-16T06:44:21.082Z,8
2019-01-16T06:45:29.133Z,12
2019-01-16T06:46:37.165Z,12
2019-01-16T06:47:45.220Z,12
2019-01-16T06:48:53.271Z,20
2019-01-16T06:50:01.740Z,20
2019-01-16T06:51:09.375Z,24
2019-01-16T06:52:17.429Z,28
2019-01-16T06:53:25.487Z,32
2019-01-16T06:54:33.527Z,36
2019-01-16T06:55:41.564Z,44
2019-01-16T06:56:49.635Z,56
2019-01-16T06:57:57.675Z,68
2019-01-16T06:59:05.722Z,72
2019-01-16T07:00:13.772Z,88
2019-01-16T07:01:21.818Z,100
2019-01-16T07:02:29.967Z,116
2019-01-16T07:03:37.927Z,132
2019-01-16T07:04:46.055Z,148
2019-01-16T07:05:54.015Z,172
2019-01-16T07:07:02.070Z,196
2019-01-16T07:08:10.123Z,212
2019-01-16T07:09:18.161Z,232
2019-01-16T07:10:26.215Z,256
2019-01-16T07:11:34.287Z,284
2019-01-16T07:12:42.324Z,316
2019-01-16T07:13:50.366Z,352
2019-01-16T07:14:58.434Z,376
2019-01-16T07:16:06.482Z,396
2019-01-16T07:17:14.535Z,420
2019-01-16T07:18:22.566Z,448
2019-01-16T07:19:30.618Z,484
2019-01-16T07:20:38.680Z,504
2019-01-16T07:21:46.730Z,536
2019-01-16T07:22:54.781Z,584
2019-01-16T07:24:02.817Z,600
2019-01-16T07:25:10.853Z,636
2019-01-16T07:26:18.940Z,696
2019-01-16T07:27:26.983Z,748
2019-01-16T07:28:35.039Z,784
2019-01-16T07:29:43.083Z,820
2019-01-16T07:30:51.119Z,896
2019-01-16T07:31:59.172Z,888
2019-01-16T07:33:07.221Z,952
2019-01-16T07:34:15.278Z,1016
2019-01-16T07:35:23.338Z,1036
2019-01-16T07:36:31.371Z,1012
2019-01-16T07:37:39.431Z,1100
2019-01-16T07:38:47.482Z,1160
2019-01-16T07:39:55.540Z,1256
2019-01-16T07:41:03.592Z,1340
2019-01-16T07:42:11.617Z,1384
2019-01-16T07:43:19.679Z,1416
2019-01-16T07:44:27.726Z,1480
2019-01-16T07:45:35.789Z,1532
2019-01-16T07:46:43.842Z,1560
2019-01-16T07:47:51.905Z,1640
2019-01-16T07:48:59.937Z,1736
2019-01-16T07:50:07.987Z,1708
2019-01-16T07:51:16.039Z,1724
2019-01-16T07:52:24.091Z,1776
2019-01-16T07:53:32.140Z,1824
2019-01-16T07:54:40.204Z,1916
2019-01-16T07:55:48.250Z,1988
2019-01-16T07:56:56.324Z,2096
2019-01-16T07:58:04.343Z,2244
2019-01-16T07:59:12.407Z,2328
2019-01-16T08:00:20.435Z,2344
2019-01-16T08:01:28.517Z,2492
2019-01-16T08:02:36.562Z,2512
2019-01-16T08:03:44.608Z,2504
2019-01-16T08:04:52.671Z,2532
2019-01-16T08:06:00.675Z,2656
2019-01-16T08:07:08.771Z,2724
2019-01-16T08:08:16.860Z,2708
2019-01-16T08:09:24.862Z,2616
2019-01-16T08:10:32.903Z,2652
2019-01-16T08:11:40.941Z,2664
2019-01-16T08:12:49.025Z,2764
2019-01-16T08:13:57.068Z,2792
2019-01-16T08:15:05.146Z,2788
2019-01-16T08:16:13.174Z,2588
2019-01-16T08:17:21.203Z,2888
2019-01-16T08:18:29.287Z,2900
2019-01-16T08:19:37.325Z,3216
2019-01-16T08:20:45.372Z,3116
2019-01-16T08:21:53.442Z,3020
2019-01-16T08:23:01.471Z,3076
2019-01-16T08:24:09.520Z,3060
2019-01-16T08:25:17.585Z,2924
2019-01-16T08:26:25.642Z,3176
2019-01-16T08:27:33.691Z,3268
2019-01-16T08:28:41.778Z,3292
2019-01-16T08:29:49.781Z,3164
2019-01-16T08:30:57.886Z,3128
2019-01-16T08:32:05.898Z,3488
2019-01-16T08:33:14.012Z,3384
2019-01-16T08:34:21.992Z,3564
2019-01-16T08:35:30.046Z,3416
2019-01-16T08:36:38.106Z,3336
2019-01-16T08:37:46.148Z,3660
2019-01-16T08:38:54.202Z,3536
2019-01-16T08:40:02.260Z,4228
2019-01-16T08:41:10.315Z,3904
2019-01-16T08:42:18.381Z,4308
2019-01-16T08:43:26.403Z,3968
2019-01-16T08:44:34.460Z,4876
2019-01-16T08:45:42.517Z,4764
2019-01-16T08:46:50.552Z,5080
2019-01-16T08:47:58.620Z,4624
2019-01-16T08:49:06.671Z,4628
2019-01-16T08:50:14.726Z,4872
2019-01-16T08:51:22.783Z,4472
2019-01-16T08:52:30.819Z,4948
2019-01-16T08:53:38.884Z,5536
2019-01-16T08:54:46.929Z,5352
2019-01-16T08:55:55.002Z,6300
2019-01-16T08:57:03.023Z,6868
2019-01-16T08:58:11.061Z,5240
2019-01-16T08:59:19.145Z,5240
2019-01-16T09:00:27.205Z,5800
2019-01-16T09:01:35.248Z,5512
2019-01-16T09:02:43.295Z,5684
2019-01-16T09:03:51.336Z,6144
2019-01-16T09:04:59.740Z,6040
2019-01-16T09:06:07.468Z,6164
2019-01-16T09:07:15.499Z,4448
2019-01-16T09:08:23.575Z,4032
2019-01-16T09:09:31.612Z,4008
2019-01-16T09:10:39.666Z,4044
2019-01-16T09:11:47.723Z,3868
2019-01-16T09:12:55.759Z,3280
2019-01-16T09:14:03.808Z,3092
2019-01-16T09:15:11.872Z,3168
2019-01-16T09:16:19.931Z,3232
2019-01-16T09:17:27.995Z,3348
2019-01-16T09:18:36.024Z,3516
2019-01-16T09:19:44.091Z,3868
2019-01-16T09:20:52.150Z,4060
2019-01-16T09:22:00.187Z,4020
2019-01-16T09:23:08.242Z,4616
2019-01-16T09:24:16.281Z,6132
2019-01-16T09:25:24.357Z,6176
2019-01-16T09:26:32.399Z,6252
2019-01-16T09:27:40.444Z,6452
2019-01-16T09:28:48.505Z,6096
2019-01-16T09:29:56.563Z,6084
2019-01-16T09:31:04.627Z,6272
2019-01-16T09:32:12.659Z,6300
2019-01-16T09:33:20.690Z,5912
2019-01-16T09:34:28.771Z,6460
2019-01-16T09:35:36.810Z,6128
2019-01-16T09:36:44.869Z,5648
2019-01-16T09:37:52.912Z,5424
2019-01-16T09:39:00.952Z,5116
2019-01-16T09:40:09.028Z,5020
2019-01-16T09:41:17.121Z,5016
2019-01-16T09:42:25.122Z,4788
2019-01-16T09:43:33.188Z,5276
2019-01-16T09:44:41.216Z,4760
2019-01-16T09:45:49.311Z,5224
2019-01-16T09:46:57.341Z,6200
2019-01-16T09:48:05.404Z,5856
2019-01-16T09:49:13.460Z,5364
2019-01-16T09:50:21.488Z,6136
2019-01-16T09:51:29.546Z,6720
2019-01-16T09:52:37.608Z,6640
2019-01-16T09:53:45.672Z,8940
2019-01-16T09:54:53.714Z,8168
2019-01-16T09:56:01.777Z,6656
2019-01-16T09:57:09.829Z,8964
2019-01-16T09:58:17.870Z,7684
2019-01-16T09:59:25.935Z,6992
2019-01-16T10:00:33.983Z,8688
2019-01-16T10:01:42.044Z,8888
2019-01-16T10:02:50.093Z,8432
2019-01-16T10:03:58.154Z,7176
2019-01-16T10:05:06.215Z,9508
2019-01-16T10:06:14.254Z,7536
2019-01-16T10:07:22.317Z,6400
2019-01-16T10:08:30.359Z,7224
2019-01-16T10:09:38.417Z,7716
2019-01-16T10:10:46.455Z,8424
2019-01-16T10:11:54.515Z,7276
2019-01-16T10:13:02.563Z,7380
2019-01-16T10:14:10.616Z,7836
2019-01-16T10:15:18.692Z,8736
2019-01-16T10:16:26.727Z,7984
2019-01-16T10:17:34.795Z,8284
2019-01-16T10:18:42.860Z,8152
2019-01-16T10:19:50.885Z,6564
2019-01-16T10:20:58.954Z,7104
2019-01-16T10:22:07.000Z,6320
2019-01-16T10:23:15.060Z,6312
2019-01-16T10:24:23.115Z,7412
2019-01-16T10:25:31.171Z,7496
2019-01-16T10:26:39.220Z,6980
2019-01-16T10:27:47.282Z,7144
2019-01-16T10:28:55.343Z,7876
2019-01-16T10:30:03.388Z,9400
2019-01-16T10:31:11.423Z,8960
2019-01-16T10:32:19.501Z,8228
2019-01-16T10:33:27.547Z,10024
2019-01-16T10:34:35.608Z,6708
2019-01-16T10:35:43.667Z,8264
2019-01-16T10:36:51.730Z,6512
2019-01-16T10:37:59.776Z,7244
2019-01-16T10:39:07.833Z,6840
2019-01-16T10:40:15.865Z,6624
2019-01-16T10:41:23.948Z,6920
2019-01-16T10:42:31.995Z,6336
2019-01-16T10:43:40.101Z,8144
2019-01-16T10:44:48.101Z,8024
2019-01-16T10:45:56.144Z,7588
2019-01-16T10:47:04.215Z,7924
2019-01-16T10:48:12.270Z,8432
2019-01-16T10:49:20.317Z,7944
2019-01-16T10:50:28.441Z,7936
2019-01-16T10:51:36.443Z,7208
2019-01-16T10:52:44.544Z,8048
2019-01-16T10:53:52.543Z,7920
2019-01-16T10:55:00.632Z,9332
2019-01-16T10:56:08.655Z,9704
2019-01-16T10:57:16.755Z,9488
2019-01-16T10:58:24.774Z,10356
2019-01-16T10:59:32.836Z,10420
2019-01-16T11:00:40.849Z,10708
2019-01-16T11:01:48.986Z,10356
2019-01-16T11:02:56.990Z,10184
2019-01-16T11:04:05.093Z,9960
2019-01-16T11:05:13.373Z,10836
2019-01-16T11:06:21.128Z,9692
2019-01-16T11:07:29.207Z,10048
2019-01-16T11:08:37.268Z,10776
2019-01-16T11:09:45.319Z,11136
2019-01-16T11:10:53.431Z,11368
2019-01-16T11:12:01.417Z,10828
2019-01-16T11:13:09.556Z,10980
2019-01-16T11:14:17.560Z,11068
2019-01-16T11:15:25.602Z,10920
2019-01-16T11:16:33.650Z,10124
2019-01-16T11:17:41.716Z,11560
2019-01-16T11:18:49.781Z,10748
2019-01-16T11:19:57.824Z,8616
2019-01-16T11:21:10.905Z,8636
2019-01-16T11:22:13.934Z,10732
2019-01-16T11:23:21.993Z,9696
2019-01-16T11:24:30.062Z,11468
2019-01-16T11:25:38.109Z,10984
2019-01-16T11:26:46.174Z,9156
2019-01-16T11:27:54.233Z,9488
2019-01-16T11:29:02.295Z,9444
2019-01-16T11:30:10.342Z,8440
2019-01-16T11:31:18.396Z,10996
2019-01-16T11:32:26.452Z,10460
2019-01-16T11:33:34.517Z,10136
2019-01-16T11:34:42.569Z,9336
2019-01-16T11:35:50.615Z,11204
2019-01-16T11:36:58.671Z,9088
2019-01-16T11:38:06.733Z,9216
2019-01-16T11:39:14.796Z,9988
2019-01-16T11:40:22.847Z,10136
2019-01-16T11:41:30.892Z,10124
2019-01-16T11:42:38.967Z,9532
2019-01-16T11:43:47.025Z,8156
2019-01-16T11:44:55.072Z,9772
2019-01-16T11:46:03.131Z,10940
2019-01-16T11:47:11.192Z,11688
2019-01-16T11:48:19.261Z,11244
2019-01-16T11:49:27.313Z,9792
2019-01-16T11:50:35.366Z,10752
2019-01-16T11:51:43.404Z,10632
2019-01-16T11:52:51.481Z,10292
2019-01-16T11:53:59.543Z,11428
2019-01-16T11:55:07.605Z,10196
2019-01-16T11:56:15.655Z,11040
2019-01-16T11:57:23.712Z,9848
2019-01-16T11:58:31.778Z,9108
2019-01-16T11:59:39.823Z,9888
2019-01-16T12:00:47.883Z,8832
2019-01-16T12:01:55.946Z,8436
2019-01-16T12:03:04.009Z,8368
2019-01-16T12:04:12.049Z,8852
2019-01-16T12:05:20.122Z,9076
2019-01-16T12:06:28.171Z,8360
2019-01-16T12:07:36.230Z,7588
2019-01-16T12:08:44.303Z,7396
2019-01-16T12:09:52.349Z,7224
2019-01-16T12:11:00.427Z,6928
2019-01-16T12:12:08.470Z,6960
2019-01-16T12:13:16.511Z,6956
2019-01-16T12:14:24.569Z,6788
2019-01-16T12:15:32.630Z,6728
2019-01-16T12:16:40.656Z,6672
2019-01-16T12:17:48.752Z,6688
2019-01-16T12:18:56.792Z,6784
2019-01-16T12:20:04.864Z,6940
2019-01-16T12:21:12.918Z,6988
2019-01-16T12:22:20.958Z,7004
2019-01-16T12:23:29.038Z,7160
2019-01-16T12:24:37.093Z,7112
2019-01-16T12:25:45.155Z,7196
2019-01-16T12:26:53.201Z,7388
2019-01-16T12:28:01.232Z,7568
2019-01-16T12:29:09.317Z,7756
2019-01-16T12:30:17.374Z,7884
2019-01-16T12:31:25.537Z,7876
2019-01-16T12:32:33.487Z,7772
2019-01-16T12:33:41.533Z,7512
2019-01-16T12:34:49.623Z,7344
2019-01-16T12:35:57.656Z,7332
2019-01-16T12:37:05.727Z,7284
2019-01-16T12:38:13.779Z,7252
2019-01-16T12:39:21.842Z,7092
2019-01-16T12:40:29.892Z,7108
2019-01-16T12:41:37.937Z,7056
2019-01-16T12:42:46.016Z,7092
2019-01-16T12:43:54.062Z,7116
2019-01-16T12:45:02.125Z,6936
2019-01-16T12:46:10.167Z,6640
2019-01-16T12:47:18.242Z,6400
2019-01-16T12:48:26.304Z,6172
2019-01-16T12:49:34.357Z,5956
2019-01-16T12:50:42.407Z,5868
2019-01-16T12:51:50.451Z,5588
2019-01-16T12:52:58.512Z,5384
2019-01-16T12:54:06.573Z,5280
2019-01-16T12:55:14.642Z,5184
2019-01-16T12:56:22.693Z,5144
2019-01-16T12:57:30.736Z,5092
2019-01-16T12:58:38.791Z,5004
2019-01-16T12:59:46.865Z,4980
2019-01-16T13:00:54.912Z,5044
2019-01-16T13:02:02.997Z,5040
2019-01-16T13:03:11.021Z,5120
2019-01-16T13:04:19.086Z,5088
2019-01-16T13:05:27.140Z,5092
2019-01-16T13:06:35.189Z,5088
2019-01-16T13:07:43.273Z,5040
2019-01-16T13:08:51.290Z,5028
2019-01-16T13:09:59.374Z,4876
2019-01-16T13:11:07.425Z,4784
2019-01-16T13:12:15.489Z,4612
2019-01-16T13:13:23.537Z,4488
2019-01-16T13:14:31.589Z,4408
2019-01-16T13:15:39.653Z,4356
2019-01-16T13:16:47.709Z,4248
2019-01-16T13:17:55.758Z,3984
2019-01-16T13:19:03.810Z,3876
2019-01-16T13:20:11.889Z,3840
2019-01-16T13:21:19.941Z,3764
2019-01-16T13:22:27.988Z,3732
2019-01-16T13:23:36.045Z,3632
2019-01-16T13:24:44.107Z,3616
2019-01-16T13:25:52.176Z,3612
2019-01-16T13:27:00.208Z,3652
2019-01-16T13:28:08.287Z,3752
2019-01-16T13:29:16.327Z,3856
2019-01-16T13:30:24.394Z,3956
2019-01-16T13:31:32.431Z,4084
2019-01-16T13:32:40.470Z,4192
2019-01-16T13:33:48.557Z,4292
2019-01-16T13:34:56.624Z,4344
2019-01-16T13:36:04.659Z,4400
2019-01-16T13:37:12.711Z,4484
2019-01-16T13:38:20.738Z,4540
2019-01-16T13:39:28.837Z,4604
2019-01-16T13:40:36.898Z,4636
2019-01-16T13:41:44.944Z,4636
2019-01-16T13:42:53.000Z,4608
2019-01-16T13:44:01.035Z,4576
2019-01-16T13:45:09.127Z,4556
2019-01-16T13:46:17.155Z,4528
2019-01-16T13:47:25.219Z,4496
2019-01-16T13:48:33.287Z,4428
2019-01-16T13:49:41.324Z,4376
2019-01-16T13:50:49.395Z,4344
2019-01-16T13:51:57.445Z,4324
2019-01-16T13:53:05.498Z,4288
2019-01-16T13:54:13.558Z,4244
2019-01-16T13:55:21.627Z,4192
2019-01-16T13:56:29.681Z,4160
2019-01-16T13:57:37.710Z,4088
2019-01-16T13:58:45.778Z,4048
2019-01-16T13:59:53.837Z,3972
2019-01-16T14:01:01.893Z,3928
2019-01-16T14:02:09.950Z,3908
2019-01-16T14:03:17.991Z,3920
2019-01-16T14:04:26.052Z,3960
2019-01-16T14:05:34.116Z,4020
2019-01-16T14:06:42.164Z,4096
2019-01-16T14:07:50.214Z,4176
2019-01-16T14:08:58.268Z,4184
2019-01-16T14:10:06.335Z,4176
2019-01-16T14:11:14.402Z,4144
2019-01-16T14:12:22.458Z,4040
2019-01-16T14:13:30.495Z,3972
2019-01-16T14:14:38.597Z,3908
2019-01-16T14:15:46.620Z,3840
2019-01-16T14:16:54.715Z,3748
2019-01-16T14:18:02.707Z,3708
2019-01-16T14:19:10.753Z,3676
2019-01-16T14:20:18.842Z,3696
2019-01-16T14:21:26.933Z,3788
2019-01-16T14:22:34.948Z,3868
2019-01-16T14:23:43.046Z,3900
2019-01-16T14:24:51.059Z,3908
2019-01-16T14:25:59.179Z,3992
2019-01-16T14:27:07.161Z,4024
2019-01-16T14:28:15.276Z,4040
2019-01-16T14:29:23.288Z,4032
2019-01-16T14:30:31.316Z,3952
2019-01-16T14:31:39.394Z,3896
2019-01-16T14:32:47.455Z,3796
2019-01-16T14:33:55.507Z,3756
2019-01-16T14:35:03.567Z,3708
2019-01-16T14:36:11.613Z,3628
2019-01-16T14:37:19.674Z,3556
2019-01-16T14:38:27.710Z,3472
2019-01-16T14:39:35.776Z,3460
2019-01-16T14:40:43.841Z,3420
2019-01-16T14:41:51.897Z,3360
2019-01-16T14:42:59.955Z,3304
2019-01-16T14:44:08.007Z,3236
2019-01-16T14:45:16.063Z,3192
2019-01-16T14:46:24.120Z,3080
2019-01-16T14:47:32.179Z,3044
2019-01-16T14:48:40.234Z,2980
2019-01-16T14:49:48.286Z,2868
2019-01-16T14:50:56.358Z,2784
2019-01-16T14:52:04.411Z,2748
2019-01-16T14:53:12.453Z,2700
2019-01-16T14:54:20.484Z,2656
2019-01-16T14:55:28.577Z,2604
2019-01-16T14:56:36.611Z,2552
2019-01-16T14:57:44.686Z,2504
2019-01-16T14:58:52.716Z,2448
2019-01-16T15:00:00.756Z,2376
2019-01-16T15:01:08.840Z,2300
2019-01-16T15:02:16.893Z,2224
2019-01-16T15:03:24.936Z,2120
2019-01-16T15:04:32.999Z,2052
2019-01-16T15:05:41.035Z,1996
2019-01-16T15:06:49.105Z,1956
2019-01-16T15:07:57.182Z,1908
2019-01-16T15:09:05.218Z,1864
2019-01-16T15:10:13.295Z,1836
2019-01-16T15:11:21.300Z,1816
2019-01-16T15:12:29.387Z,1804
2019-01-16T15:13:37.452Z,1784
2019-01-16T15:14:45.511Z,1764
2019-01-16T15:15:53.575Z,1740
2019-01-16T15:17:01.613Z,1708
2019-01-16T15:18:09.661Z,1656
2019-01-16T15:19:17.716Z,1600
2019-01-16T15:20:25.771Z,1532
2019-01-16T15:21:33.847Z,1464
2019-01-16T15:22:41.893Z,1400
2019-01-16T15:23:49.955Z,1344
2019-01-16T15:24:58.005Z,1284
2019-01-16T15:26:06.061Z,1224
2019-01-16T15:27:14.120Z,1164
2019-01-16T15:28:22.187Z,1108
2019-01-16T15:29:30.212Z,1052
2019-01-16T15:30:38.281Z,988
2019-01-16T15:31:46.330Z,932
2019-01-16T15:32:54.372Z,872
2019-01-16T15:34:02.454Z,820
2019-01-16T15:35:10.474Z,768
2019-01-16T15:36:18.544Z,716
2019-01-16T15:37:26.587Z,668
2019-01-16T15:38:34.654Z,624
2019-01-16T15:39:42.734Z,588
2019-01-16T15:40:50.738Z,548
2019-01-16T15:41:58.803Z,520
2019-01-16T15:43:06.870Z,488
2019-01-16T15:44:14.927Z,460
2019-01-16T15:45:22.976Z,428
2019-01-16T15:46:31.014Z,400
2019-01-16T15:47:39.083Z,376
2019-01-16T15:48:47.156Z,352
2019-01-16T15:49:55.218Z,332
2019-01-16T15:51:03.271Z,308
2019-01-16T15:52:13.034Z,288
2019-01-16T15:53:19.350Z,272